sensor_id;sensor_type;location;lat;lon;timestamp;pressure;altitude;pressure_sealevel;temperature;humidity
25526;BME280;13424;48.424;11.258;2023-02-16T00:00:45;96617.03;;;1.23;79.91
25526;BME280;13424;48.424;11.258;2023-02-16T00:03:17;96616.06;;;1.24;79.43
25526;BME280;13424;48.424;11.258;2023-02-16T00:05:43;96612.16;;;1.28;79.34
25526;BME280;13424;48.424;11.258;2023-02-16T00:08:08;96615.13;;;1.33;79.05
25526;BME280;13424;48.424;11.258;2023-02-16T00:10:36;96617.47;;;1.45;78.75
25526;BME280;13424;48.424;11.258;2023-02-16T00:13:18;96619.47;;;1.17;79.11
25526;BME280;13424;48.424;11.258;2023-02-16T00:16:10;96614.28;;;0.99;80.22
25526;BME280;13424;48.424;11.258;2023-02-16T00:18:36;96600.09;;;1.18;79.38
25526;BME280;13424;48.424;11.258;2023-02-16T00:21:02;96592.66;;;1.05;79.77
25526;BME280;13424;48.424;11.258;2023-02-16T00:23:28;96586.00;;;0.93;81.26
25526;BME280;13424;48.424;11.258;2023-02-16T00:25:53;96595.94;;;1.07;80.52
25526;BME280;13424;48.424;11.258;2023-02-16T00:28:19;96589.13;;;1.22;80.24
25526;BME280;13424;48.424;11.258;2023-02-16T00:30:46;96587.81;;;0.92;80.52
25526;BME280;13424;48.424;11.258;2023-02-16T00:33:19;96590.72;;;1.15;80.14
25526;BME280;13424;48.424;11.258;2023-02-16T00:35:45;96598.31;;;1.26;79.86
25526;BME280;13424;48.424;11.258;2023-02-16T00:38:12;96600.28;;;1.24;79.82
25526;BME280;13424;48.424;11.258;2023-02-16T00:40:38;96597.63;;;1.16;79.28
25526;BME280;13424;48.424;11.258;2023-02-16T00:43:05;96607.88;;;1.27;79.70
25526;BME280;13424;48.424;11.258;2023-02-16T00:45:34;96608.44;;;1.47;78.96
25526;BME280;13424;48.424;11.258;2023-02-16T00:48:01;96614.31;;;1.41;79.29
25526;BME280;13424;48.424;11.258;2023-02-16T00:50:33;96603.16;;;1.39;78.73
25526;BME280;13424;48.424;11.258;2023-02-16T00:52:59;96611.25;;;1.54;78.21
25526;BME280;13424;48.424;11.258;2023-02-16T01:00:14;96625.47;;;1.69;76.56
25526;BME280;13424;48.424;11.258;2023-02-16T01:02:45;96619.25;;;1.78;76.44
25526;BME280;13424;48.424;11.258;2023-02-16T01:05:12;96611.06;;;1.47;77.47
25526;BME280;13424;48.424;11.258;2023-02-16T01:07:38;96605.75;;;0.97;79.32
25526;BME280;13424;48.424;11.258;2023-02-16T01:10:23;96608.84;;;1.26;78.58
25526;BME280;13424;48.424;11.258;2023-02-16T01:13:08;96610.31;;;1.21;78.22
25526;BME280;13424;48.424;11.258;2023-02-16T01:15:35;96610.13;;;1.22;78.03
25526;BME280;13424;48.424;11.258;2023-02-16T01:18:01;96597.25;;;1.03;78.17
25526;BME280;13424;48.424;11.258;2023-02-16T01:20:27;96606.75;;;1.38;77.81
25526;BME280;13424;48.424;11.258;2023-02-16T01:22:53;96598.31;;;1.60;76.27
25526;BME280;13424;48.424;11.258;2023-02-16T01:25:20;96598.78;;;1.56;76.31
25526;BME280;13424;48.424;11.258;2023-02-16T01:27:46;96595.28;;;1.05;76.94
25526;BME280;13424;48.424;11.258;2023-02-16T01:30:17;96589.47;;;0.67;78.59
25526;BME280;13424;48.424;11.258;2023-02-16T01:32:44;96584.50;;;0.90;78.60
25526;BME280;13424;48.424;11.258;2023-02-16T01:35:20;96590.88;;;0.79;78.90
25526;BME280;13424;48.424;11.258;2023-02-16T01:37:47;96591.91;;;0.95;78.15
25526;BME280;13424;48.424;11.258;2023-02-16T01:43:31;96586.19;;;0.99;77.22
25526;BME280;13424;48.424;11.258;2023-02-16T01:46:13;96584.44;;;1.08;77.15
25526;BME280;13424;48.424;11.258;2023-02-16T01:48:39;96578.53;;;1.06;77.51
25526;BME280;13424;48.424;11.258;2023-02-16T01:51:21;96579.72;;;0.86;78.12
25526;BME280;13424;48.424;11.258;2023-02-16T01:53:52;96580.50;;;1.04;77.75
25526;BME280;13424;48.424;11.258;2023-02-16T01:56:35;96569.22;;;0.86;78.44
25526;BME280;13424;48.424;11.258;2023-02-16T01:59:20;96572.44;;;0.71;78.98
25526;BME280;13424;48.424;11.258;2023-02-16T02:01:57;96570.63;;;0.72;78.90
25526;BME280;13424;48.424;11.258;2023-02-16T02:04:39;96554.38;;;0.76;79.15
25526;BME280;13424;48.424;11.258;2023-02-16T02:07:36;96560.34;;;0.61;79.19
25526;BME280;13424;48.424;11.258;2023-02-16T02:10:55;96557.66;;;0.78;78.47
25526;BME280;13424;48.424;11.258;2023-02-16T02:13:44;96555.31;;;0.67;78.64
25526;BME280;13424;48.424;11.258;2023-02-16T02:16:16;96555.72;;;0.80;78.03
25526;BME280;13424;48.424;11.258;2023-02-16T02:18:54;96548.69;;;0.81;77.27
25526;BME280;13424;48.424;11.258;2023-02-16T02:22:11;96549.13;;;0.76;77.93
25526;BME280;13424;48.424;11.258;2023-02-16T02:28:36;96547.78;;;0.46;78.46
25526;BME280;13424;48.424;11.258;2023-02-16T02:31:18;96544.50;;;0.44;78.43
25526;BME280;13424;48.424;11.258;2023-02-16T02:34:03;96539.59;;;0.75;77.40
25526;BME280;13424;48.424;11.258;2023-02-16T02:36:42;96538.66;;;0.84;76.72
25526;BME280;13424;48.424;11.258;2023-02-16T02:39:40;96543.66;;;0.70;76.33
25526;BME280;13424;48.424;11.258;2023-02-16T02:42:32;96549.22;;;0.93;76.08
25526;BME280;13424;48.424;11.258;2023-02-16T02:45:08;96553.06;;;0.72;76.73
25526;BME280;13424;48.424;11.258;2023-02-16T02:47:44;96545.22;;;0.80;76.28
25526;BME280;13424;48.424;11.258;2023-02-16T02:50:51;96549.53;;;0.90;75.82
25526;BME280;13424;48.424;11.258;2023-02-16T02:53:50;96543.25;;;0.82;76.19
25526;BME280;13424;48.424;11.258;2023-02-16T03:03:07;96544.09;;;0.57;76.88
25526;BME280;13424;48.424;11.258;2023-02-16T03:05:36;96546.97;;;0.46;77.18
25526;BME280;13424;48.424;11.258;2023-02-16T03:08:15;96553.78;;;0.39;77.54
25526;BME280;13424;48.424;11.258;2023-02-16T03:10:49;96557.88;;;0.85;76.04
25526;BME280;13424;48.424;11.258;2023-02-16T03:13:41;96551.50;;;0.88;75.34
25526;BME280;13424;48.424;11.258;2023-02-16T03:17:12;96560.09;;;0.98;74.94
25526;BME280;13424;48.424;11.258;2023-02-16T03:19:07;96570.41;;;0.91;74.73
25526;BME280;13424;48.424;11.258;2023-02-16T03:21:52;96565.13;;;0.91;74.03
25526;BME280;13424;48.424;11.258;2023-02-16T03:24:37;96568.09;;;0.88;73.82
25526;BME280;13424;48.424;11.258;2023-02-16T03:27:29;96574.69;;;0.66;74.01
25526;BME280;13424;48.424;11.258;2023-02-16T03:30:15;96569.31;;;0.50;73.40
25526;BME280;13424;48.424;11.258;2023-02-16T03:32:49;96570.34;;;0.57;74.16
25526;BME280;13424;48.424;11.258;2023-02-16T03:35:15;96566.56;;;0.34;75.90
25526;BME280;13424;48.424;11.258;2023-02-16T03:37:41;96570.84;;;0.35;76.23
25526;BME280;13424;48.424;11.258;2023-02-16T03:40:11;96566.56;;;0.34;76.85
25526;BME280;13424;48.424;11.258;2023-02-16T03:42:55;96564.34;;;0.03;77.64
25526;BME280;13424;48.424;11.258;2023-02-16T03:45:22;96559.47;;;0.08;77.54
25526;BME280;13424;48.424;11.258;2023-02-16T03:47:48;96552.03;;;0.21;77.94
25526;BME280;13424;48.424;11.258;2023-02-16T03:50:14;96538.94;;;-0.32;79.49
25526;BME280;13424;48.424;11.258;2023-02-16T03:52:40;96546.81;;;-0.14;78.96
25526;BME280;13424;48.424;11.258;2023-02-16T03:55:06;96543.44;;;0.11;78.01
25526;BME280;13424;48.424;11.258;2023-02-16T03:57:31;96553.19;;;0.01;77.71
25526;BME280;13424;48.424;11.258;2023-02-16T03:59:57;96548.09;;;-0.18;78.73
25526;BME280;13424;48.424;11.258;2023-02-16T04:02:26;96543.97;;;-0.39;79.60
25526;BME280;13424;48.424;11.258;2023-02-16T04:04:52;96555.75;;;-0.07;79.18
25526;BME280;13424;48.424;11.258;2023-02-16T04:07:17;96555.44;;;-0.04;78.09
25526;BME280;13424;48.424;11.258;2023-02-16T04:09:43;96562.47;;;0.57;76.15
25526;BME280;13424;48.424;11.258;2023-02-16T04:12:10;96562.75;;;0.28;77.49
25526;BME280;13424;48.424;11.258;2023-02-16T04:14:57;96553.03;;;-0.15;77.98
25526;BME280;13424;48.424;11.258;2023-02-16T04:17:23;96551.84;;;-0.21;78.84
25526;BME280;13424;48.424;11.258;2023-02-16T04:19:49;96550.41;;;-0.15;78.49
25526;BME280;13424;48.424;11.258;2023-02-16T04:22:15;96556.16;;;0.06;77.57
25526;BME280;13424;48.424;11.258;2023-02-16T04:24:41;96555.88;;;0.09;77.42
25526;BME280;13424;48.424;11.258;2023-02-16T04:27:07;96553.88;;;-0.15;78.39
25526;BME280;13424;48.424;11.258;2023-02-16T04:29:33;96564.72;;;-0.28;78.78
25526;BME280;13424;48.424;11.258;2023-02-16T04:31:59;96565.41;;;0.10;77.19
25526;BME280;13424;48.424;11.258;2023-02-16T04:34:25;96571.06;;;0.23;77.19
25526;BME280;13424;48.424;11.258;2023-02-16T04:36:50;96568.44;;;0.23;77.20
25526;BME280;13424;48.424;11.258;2023-02-16T04:39:16;96566.19;;;0.28;76.07
25526;BME280;13424;48.424;11.258;2023-02-16T04:41:42;96573.41;;;0.26;76.11
25526;BME280;13424;48.424;11.258;2023-02-16T04:44:08;96570.41;;;0.21;76.69
25526;BME280;13424;48.424;11.258;2023-02-16T04:46:34;96572.03;;;0.22;76.49
25526;BME280;13424;48.424;11.258;2023-02-16T04:48:59;96569.00;;;0.09;76.67
25526;BME280;13424;48.424;11.258;2023-02-16T04:51:25;96569.06;;;0.17;76.44
25526;BME280;13424;48.424;11.258;2023-02-16T04:53:51;96561.47;;;0.14;76.79
25526;BME280;13424;48.424;11.258;2023-02-16T04:56:17;96563.00;;;0.17;76.76
25526;BME280;13424;48.424;11.258;2023-02-16T04:58:42;96563.38;;;0.04;77.03
25526;BME280;13424;48.424;11.258;2023-02-16T05:01:08;96562.31;;;-0.03;77.78
25526;BME280;13424;48.424;11.258;2023-02-16T05:03:42;96557.97;;;-0.12;77.35
25526;BME280;13424;48.424;11.258;2023-02-16T05:06:07;96557.09;;;-0.21;77.52
25526;BME280;13424;48.424;11.258;2023-02-16T05:08:33;96560.69;;;-0.04;77.81
25526;BME280;13424;48.424;11.258;2023-02-16T05:10:59;96562.31;;;-0.21;78.31
25526;BME280;13424;48.424;11.258;2023-02-16T05:13:43;96566.75;;;-0.21;78.48
25526;BME280;13424;48.424;11.258;2023-02-16T05:16:28;96554.63;;;-0.22;78.84
25526;BME280;13424;48.424;11.258;2023-02-16T05:18:54;96570.47;;;-0.24;78.50
25526;BME280;13424;48.424;11.258;2023-02-16T05:21:19;96557.94;;;-0.48;79.67
25526;BME280;13424;48.424;11.258;2023-02-16T05:24:06;96554.56;;;-0.40;80.72
25526;BME280;13424;48.424;11.258;2023-02-16T05:26:34;96552.41;;;-0.45;79.64
25526;BME280;13424;48.424;11.258;2023-02-16T05:29:00;96563.00;;;-0.37;79.62
25526;BME280;13424;48.424;11.258;2023-02-16T05:31:27;96568.00;;;-0.43;79.90
25526;BME280;13424;48.424;11.258;2023-02-16T05:33:53;96574.69;;;-0.13;79.22
25526;BME280;13424;48.424;11.258;2023-02-16T05:36:20;96576.19;;;-0.56;80.87
25526;BME280;13424;48.424;11.258;2023-02-16T05:38:46;96581.75;;;-0.14;79.26
25526;BME280;13424;48.424;11.258;2023-02-16T05:41:12;96581.19;;;-0.17;78.57
25526;BME280;13424;48.424;11.258;2023-02-16T05:43:59;96594.03;;;0.21;77.83
25526;BME280;13424;48.424;11.258;2023-02-16T05:46:27;96604.94;;;0.52;76.59
25526;BME280;13424;48.424;11.258;2023-02-16T05:48:53;96616.41;;;0.51;76.79
25526;BME280;13424;48.424;11.258;2023-02-16T05:51:20;96613.19;;;0.83;74.81
25526;BME280;13424;48.424;11.258;2023-02-16T05:53:46;96615.06;;;0.91;74.47
25526;BME280;13424;48.424;11.258;2023-02-16T05:56:12;96603.09;;;0.97;73.87
25526;BME280;13424;48.424;11.258;2023-02-16T05:58:38;96617.91;;;0.54;74.13
25526;BME280;13424;48.424;11.258;2023-02-16T06:01:04;96616.72;;;0.31;76.88
25526;BME280;13424;48.424;11.258;2023-02-16T06:03:30;96614.44;;;0.71;74.22
25526;BME280;13424;48.424;11.258;2023-02-16T06:05:59;96617.63;;;0.83;74.20
25526;BME280;13424;48.424;11.258;2023-02-16T06:08:26;96625.63;;;0.73;74.05
25526;BME280;13424;48.424;11.258;2023-02-16T06:10:53;96629.28;;;0.80;73.44
25526;BME280;13424;48.424;11.258;2023-02-16T06:13:20;96633.22;;;0.84;73.16
25526;BME280;13424;48.424;11.258;2023-02-16T06:15:47;96631.16;;;0.70;73.51
25526;BME280;13424;48.424;11.258;2023-02-16T06:18:15;96626.38;;;0.92;73.25
25526;BME280;13424;48.424;11.258;2023-02-16T06:20:41;96634.88;;;0.86;72.72
25526;BME280;13424;48.424;11.258;2023-02-16T06:23:07;96632.75;;;0.63;73.54
25526;BME280;13424;48.424;11.258;2023-02-16T06:25:34;96633.22;;;0.59;73.00
25526;BME280;13424;48.424;11.258;2023-02-16T06:28:00;96626.88;;;0.69;72.72
25526;BME280;13424;48.424;11.258;2023-02-16T06:30:26;96631.53;;;0.75;73.01
25526;BME280;13424;48.424;11.258;2023-02-16T06:32:52;96633.72;;;0.62;72.49
25526;BME280;13424;48.424;11.258;2023-02-16T06:35:18;96626.53;;;0.46;73.53
25526;BME280;13424;48.424;11.258;2023-02-16T06:37:44;96625.66;;;0.81;72.50
25526;BME280;13424;48.424;11.258;2023-02-16T06:40:11;96617.06;;;0.97;72.11
25526;BME280;13424;48.424;11.258;2023-02-16T06:43:32;96622.44;;;0.88;72.48
25526;BME280;13424;48.424;11.258;2023-02-16T06:45:58;96616.59;;;1.02;72.36
25526;BME280;13424;48.424;11.258;2023-02-16T06:48:24;96618.84;;;1.23;72.16
25526;BME280;13424;48.424;11.258;2023-02-16T06:50:50;96630.66;;;1.53;72.10
25526;BME280;13424;48.424;11.258;2023-02-16T06:53:16;96629.41;;;1.73;72.05
25526;BME280;13424;48.424;11.258;2023-02-16T06:55:42;96624.16;;;1.81;72.10
25526;BME280;13424;48.424;11.258;2023-02-16T06:58:12;96621.13;;;2.18;72.36
25526;BME280;13424;48.424;11.258;2023-02-16T07:00:37;96627.25;;;2.51;72.02
25526;BME280;13424;48.424;11.258;2023-02-16T07:03:03;96627.75;;;2.71;71.95
25526;BME280;13424;48.424;11.258;2023-02-16T07:05:29;96631.22;;;2.80;71.19
25526;BME280;13424;48.424;11.258;2023-02-16T07:07:55;96632.50;;;3.00;71.99
25526;BME280;13424;48.424;11.258;2023-02-16T07:10:21;96645.19;;;2.97;70.97
25526;BME280;13424;48.424;11.258;2023-02-16T07:12:47;96645.19;;;2.97;70.66
25526;BME280;13424;48.424;11.258;2023-02-16T07:15:13;96648.84;;;2.55;72.08
25526;BME280;13424;48.424;11.258;2023-02-16T07:17:38;96660.19;;;2.80;71.18
25526;BME280;13424;48.424;11.258;2023-02-16T07:20:05;96655.41;;;2.75;71.23
25526;BME280;13424;48.424;11.258;2023-02-16T07:26:38;96655.56;;;2.82;71.14
25526;BME280;13424;48.424;11.258;2023-02-16T07:29:04;96664.63;;;2.88;71.51
25526;BME280;13424;48.424;11.258;2023-02-16T07:31:30;96663.28;;;3.08;71.25
25526;BME280;13424;48.424;11.258;2023-02-16T07:33:55;96654.53;;;3.24;70.89
25526;BME280;13424;48.424;11.258;2023-02-16T07:36:21;96659.78;;;3.40;71.25
25526;BME280;13424;48.424;11.258;2023-02-16T07:38:47;96650.81;;;3.57;71.03
25526;BME280;13424;48.424;11.258;2023-02-16T07:41:13;96657.69;;;3.75;70.39
25526;BME280;13424;48.424;11.258;2023-02-16T07:43:38;96653.09;;;3.69;70.70
25526;BME280;13424;48.424;11.258;2023-02-16T07:46:07;96656.66;;;3.84;70.53
25526;BME280;13424;48.424;11.258;2023-02-16T07:48:33;96663.41;;;3.86;70.43
25526;BME280;13424;48.424;11.258;2023-02-16T07:50:59;96668.00;;;4.24;70.34
25526;BME280;13424;48.424;11.258;2023-02-16T07:53:24;96672.13;;;4.49;70.33
25526;BME280;13424;48.424;11.258;2023-02-16T07:55:50;96669.91;;;5.07;69.08
25526;BME280;13424;48.424;11.258;2023-02-16T07:58:16;96671.66;;;5.14;69.82
25526;BME280;13424;48.424;11.258;2023-02-16T08:01:12;96675.56;;;5.18;68.76
25526;BME280;13424;48.424;11.258;2023-02-16T08:03:39;96666.56;;;5.42;67.86
25526;BME280;13424;48.424;11.258;2023-02-16T08:10:12;96660.13;;;5.07;69.50
25526;BME280;13424;48.424;11.258;2023-02-16T08:12:38;96669.31;;;4.73;70.84
25526;BME280;13424;48.424;11.258;2023-02-16T08:15:04;96672.16;;;5.10;70.35
25526;BME280;13424;48.424;11.258;2023-02-16T08:17:30;96678.22;;;5.18;70.19
25526;BME280;13424;48.424;11.258;2023-02-16T08:19:55;96676.75;;;5.16;70.31
25526;BME280;13424;48.424;11.258;2023-02-16T08:22:21;96681.88;;;5.32;70.69
25526;BME280;13424;48.424;11.258;2023-02-16T08:24:48;96681.19;;;5.38;70.54
25526;BME280;13424;48.424;11.258;2023-02-16T08:27:14;96677.97;;;5.43;70.96
25526;BME280;13424;48.424;11.258;2023-02-16T08:29:39;96668.38;;;5.42;69.92
25526;BME280;13424;48.424;11.258;2023-02-16T08:32:06;96674.63;;;5.64;70.65
25526;BME280;13424;48.424;11.258;2023-02-16T08:34:33;96678.19;;;5.85;70.09
25526;BME280;13424;48.424;11.258;2023-02-16T08:36:59;96683.75;;;5.91;69.95
25526;BME280;13424;48.424;11.258;2023-02-16T08:43:31;96675.63;;;5.77;70.33
25526;BME280;13424;48.424;11.258;2023-02-16T08:45:57;96675.44;;;5.64;70.33
25526;BME280;13424;48.424;11.258;2023-02-16T08:48:22;96671.88;;;5.57;72.88
25526;BME280;13424;48.424;11.258;2023-02-16T08:50:48;96676.28;;;6.09;70.80
25526;BME280;13424;48.424;11.258;2023-02-16T08:53:21;96670.59;;;6.12;70.74
25526;BME280;13424;48.424;11.258;2023-02-16T08:55:55;96674.69;;;6.51;70.82
25526;BME280;13424;48.424;11.258;2023-02-16T08:58:21;96676.84;;;6.83;69.92
25526;BME280;13424;48.424;11.258;2023-02-16T09:00:47;96679.75;;;6.67;70.56
25526;BME280;13424;48.424;11.258;2023-02-16T09:03:15;96685.78;;;7.25;68.96
25526;BME280;13424;48.424;11.258;2023-02-16T09:05:47;96679.66;;;6.96;69.23
25526;BME280;13424;48.424;11.258;2023-02-16T09:08:14;96686.75;;;7.17;68.29
25526;BME280;13424;48.424;11.258;2023-02-16T09:10:41;96676.59;;;6.78;70.14
25526;BME280;13424;48.424;11.258;2023-02-16T09:13:07;96690.25;;;7.46;69.38
25526;BME280;13424;48.424;11.258;2023-02-16T09:15:48;96680.53;;;7.94;68.39
25526;BME280;13424;48.424;11.258;2023-02-16T09:18:14;96684.31;;;7.78;69.16
25526;BME280;13424;48.424;11.258;2023-02-16T09:20:41;96689.06;;;8.24;69.13
25526;BME280;13424;48.424;11.258;2023-02-16T09:23:08;96677.88;;;7.94;69.41
25526;BME280;13424;48.424;11.258;2023-02-16T09:25:39;96676.09;;;8.49;68.47
25526;BME280;13424;48.424;11.258;2023-02-16T09:28:06;96684.94;;;8.15;68.73
25526;BME280;13424;48.424;11.258;2023-02-16T09:30:36;96691.19;;;8.42;69.61
25526;BME280;13424;48.424;11.258;2023-02-16T09:33:03;96681.69;;;8.81;69.19
25526;BME280;13424;48.424;11.258;2023-02-16T09:35:29;96688.69;;;9.02;68.76
25526;BME280;13424;48.424;11.258;2023-02-16T09:37:56;96686.72;;;8.49;70.26
25526;BME280;13424;48.424;11.258;2023-02-16T09:40:22;96690.63;;;8.12;71.34
25526;BME280;13424;48.424;11.258;2023-02-16T09:43:08;96688.00;;;8.19;72.97
25526;BME280;13424;48.424;11.258;2023-02-16T09:45:45;96689.25;;;8.84;70.74
25526;BME280;13424;48.424;11.258;2023-02-16T09:48:31;96691.50;;;8.74;68.77
25526;BME280;13424;48.424;11.258;2023-02-16T09:50:58;96698.50;;;9.14;68.09
25526;BME280;13424;48.424;11.258;2023-02-16T09:53:37;96690.53;;;9.34;68.13
25526;BME280;13424;48.424;11.258;2023-02-16T09:58:50;96684.00;;;9.17;70.21
25526;BME280;13424;48.424;11.258;2023-02-16T10:01:45;96697.47;;;9.68;68.71
25526;BME280;13424;48.424;11.258;2023-02-16T10:07:28;96678.44;;;9.45;70.29
25526;BME280;13424;48.424;11.258;2023-02-16T10:09:57;96687.97;;;10.12;69.89
25526;BME280;13424;48.424;11.258;2023-02-16T10:12:31;96681.03;;;9.98;69.40
25526;BME280;13424;48.424;11.258;2023-02-16T10:15:14;96682.09;;;9.77;68.74
25526;BME280;13424;48.424;11.258;2023-02-16T10:20:43;96686.72;;;10.08;69.65
25526;BME280;13424;48.424;11.258;2023-02-16T10:26:32;96683.22;;;10.14;69.94
25526;BME280;13424;48.424;11.258;2023-02-16T10:29:11;96681.31;;;10.34;68.66
25526;BME280;13424;48.424;11.258;2023-02-16T10:34:53;96677.22;;;10.39;68.31
25526;BME280;13424;48.424;11.258;2023-02-16T10:37:50;96683.38;;;11.09;66.59
25526;BME280;13424;48.424;11.258;2023-02-16T10:43:17;96678.16;;;11.70;64.87
25526;BME280;13424;48.424;11.258;2023-02-16T10:45:55;96679.38;;;11.50;65.54
25526;BME280;13424;48.424;11.258;2023-02-16T10:48:25;96676.03;;;11.54;64.92
25526;BME280;13424;48.424;11.258;2023-02-16T10:51:05;96669.88;;;11.29;62.42
25526;BME280;13424;48.424;11.258;2023-02-16T10:56:54;96667.59;;;11.32;62.87
25526;BME280;13424;48.424;11.258;2023-02-16T10:59:37;96671.78;;;11.46;62.84
25526;BME280;13424;48.424;11.258;2023-02-16T11:02:25;96668.19;;;12.02;61.65
25526;BME280;13424;48.424;11.258;2023-02-16T11:04:57;96662.75;;;11.91;59.66
25526;BME280;13424;48.424;11.258;2023-02-16T11:07:27;96658.53;;;12.01;60.23
25526;BME280;13424;48.424;11.258;2023-02-16T11:09:55;96657.47;;;12.21;60.59
25526;BME280;13424;48.424;11.258;2023-02-16T11:12:35;96650.19;;;11.91;61.33
25526;BME280;13424;48.424;11.258;2023-02-16T11:21:05;96648.41;;;12.40;61.01
25526;BME280;13424;48.424;11.258;2023-02-16T11:28:46;96635.63;;;12.42;61.01
25526;BME280;13424;48.424;11.258;2023-02-16T11:31:38;96626.25;;;12.63;59.71
25526;BME280;13424;48.424;11.258;2023-02-16T11:34:06;96628.13;;;12.63;59.41
25526;BME280;13424;48.424;11.258;2023-02-16T11:36:44;96625.34;;;12.99;58.86
25526;BME280;13424;48.424;11.258;2023-02-16T11:41:56;96620.75;;;13.30;57.44
25526;BME280;13424;48.424;11.258;2023-02-16T11:44:41;96619.81;;;13.24;57.84
25526;BME280;13424;48.424;11.258;2023-02-16T11:47:38;96614.34;;;13.43;57.16
25526;BME280;13424;48.424;11.258;2023-02-16T11:50:25;96613.66;;;13.47;55.65
25526;BME280;13424;48.424;11.258;2023-02-16T11:53:14;96604.22;;;13.56;54.57
25526;BME280;13424;48.424;11.258;2023-02-16T11:55:44;96606.66;;;13.46;54.16
25526;BME280;13424;48.424;11.258;2023-02-16T11:58:19;96593.69;;;13.66;53.59
25526;BME280;13424;48.424;11.258;2023-02-16T12:05:23;96589.97;;;14.31;52.22
25526;BME280;13424;48.424;11.258;2023-02-16T12:14:48;96578.75;;;14.34;49.40
25526;BME280;13424;48.424;11.258;2023-02-16T12:22:50;96569.00;;;14.57;52.49
25526;BME280;13424;48.424;11.258;2023-02-16T12:25:45;96571.72;;;14.73;50.18
25526;BME280;13424;48.424;11.258;2023-02-16T12:31:33;96557.31;;;14.79;48.50
25526;BME280;13424;48.424;11.258;2023-02-16T12:37:04;96549.41;;;14.90;48.87
25526;BME280;13424;48.424;11.258;2023-02-16T12:40:02;96551.00;;;14.57;47.58
25526;BME280;13424;48.424;11.258;2023-02-16T12:45:24;96544.03;;;14.73;48.64
25526;BME280;13424;48.424;11.258;2023-02-16T12:48:18;96548.53;;;15.01;49.33
25526;BME280;13424;48.424;11.258;2023-02-16T12:50:45;96539.31;;;15.30;47.83
25526;BME280;13424;48.424;11.258;2023-02-16T12:53:29;96533.69;;;15.15;47.11
25526;BME280;13424;48.424;11.258;2023-02-16T12:56:06;96544.22;;;15.00;47.26
25526;BME280;13424;48.424;11.258;2023-02-16T12:58:36;96533.47;;;15.00;47.34
25526;BME280;13424;48.424;11.258;2023-02-16T13:01:17;96524.19;;;14.91;46.99
25526;BME280;13424;48.424;11.258;2023-02-16T13:09:57;96513.25;;;15.14;45.34
25526;BME280;13424;48.424;11.258;2023-02-16T13:12:38;96517.53;;;15.49;44.45
25526;BME280;13424;48.424;11.258;2023-02-16T13:15:25;96514.41;;;15.18;45.09
25526;BME280;13424;48.424;11.258;2023-02-16T13:17:59;96511.66;;;15.13;44.36
25526;BME280;13424;48.424;11.258;2023-02-16T13:20:26;96507.06;;;15.30;43.84
25526;BME280;13424;48.424;11.258;2023-02-16T13:29:44;96506.28;;;15.52;44.51
25526;BME280;13424;48.424;11.258;2023-02-16T13:35:09;96511.56;;;15.85;44.54
25526;BME280;13424;48.424;11.258;2023-02-16T13:38:18;96511.19;;;15.99;43.86
25526;BME280;13424;48.424;11.258;2023-02-16T13:43:53;96502.31;;;15.76;44.45
25526;BME280;13424;48.424;11.258;2023-02-16T13:46:30;96494.75;;;15.73;46.70
25526;BME280;13424;48.424;11.258;2023-02-16T13:48:56;96492.06;;;15.73;44.54
25526;BME280;13424;48.424;11.258;2023-02-16T13:51:25;96489.34;;;15.51;43.29
25526;BME280;13424;48.424;11.258;2023-02-16T13:54:00;96488.13;;;15.03;44.74
25526;BME280;13424;48.424;11.258;2023-02-16T13:56:31;96486.06;;;15.27;45.02
25526;BME280;13424;48.424;11.258;2023-02-16T14:01:51;96487.91;;;15.44;44.82
25526;BME280;13424;48.424;11.258;2023-02-16T14:14:53;96481.31;;;15.34;44.76
25526;BME280;13424;48.424;11.258;2023-02-16T14:19:59;96483.75;;;15.97;44.69
25526;BME280;13424;48.424;11.258;2023-02-16T14:28:00;96480.06;;;15.81;45.43
25526;BME280;13424;48.424;11.258;2023-02-16T14:30:34;96476.78;;;15.57;45.46
25526;BME280;13424;48.424;11.258;2023-02-16T14:33:22;96470.50;;;15.68;45.01
25526;BME280;13424;48.424;11.258;2023-02-16T14:38:35;96471.19;;;16.34;45.14
25526;BME280;13424;48.424;11.258;2023-02-16T14:54:28;96478.38;;;15.75;43.07
25526;BME280;13424;48.424;11.258;2023-02-16T14:57:03;96472.06;;;15.25;44.01
25526;BME280;13424;48.424;11.258;2023-02-16T15:00:00;96478.25;;;15.26;45.39
25526;BME280;13424;48.424;11.258;2023-02-16T15:02:40;96477.22;;;15.32;45.08
25526;BME280;13424;48.424;11.258;2023-02-16T15:05:28;96474.41;;;15.22;45.16
25526;BME280;13424;48.424;11.258;2023-02-16T15:08:16;96477.00;;;15.33;44.67
25526;BME280;13424;48.424;11.258;2023-02-16T15:10:44;96477.13;;;15.82;45.01
25526;BME280;13424;48.424;11.258;2023-02-16T15:13:25;96467.47;;;15.86;44.16
25526;BME280;13424;48.424;11.258;2023-02-16T15:15:56;96480.47;;;15.95;45.43
25526;BME280;13424;48.424;11.258;2023-02-16T15:18:39;96482.38;;;15.72;43.77
25526;BME280;13424;48.424;11.258;2023-02-16T15:21:06;96485.50;;;15.64;43.95
25526;BME280;13424;48.424;11.258;2023-02-16T15:23:54;96477.22;;;15.49;43.94
25526;BME280;13424;48.424;11.258;2023-02-16T15:26:28;96491.66;;;15.43;44.19
25526;BME280;13424;48.424;11.258;2023-02-16T15:28:57;96477.22;;;15.10;44.54
25526;BME280;13424;48.424;11.258;2023-02-16T15:31:41;96484.16;;;14.89;44.10
25526;BME280;13424;48.424;11.258;2023-02-16T15:34:12;96479.19;;;14.64;43.97
25526;BME280;13424;48.424;11.258;2023-02-16T15:36:42;96483.50;;;14.65;43.68
25526;BME280;13424;48.424;11.258;2023-02-16T15:39:25;96473.56;;;14.49;44.20
25526;BME280;13424;48.424;11.258;2023-02-16T15:41:51;96479.31;;;14.41;44.44
25526;BME280;13424;48.424;11.258;2023-02-16T15:44:34;96472.50;;;14.21;44.39
25526;BME280;13424;48.424;11.258;2023-02-16T15:47:07;96473.28;;;14.34;43.73
25526;BME280;13424;48.424;11.258;2023-02-16T15:49:34;96470.69;;;14.39;44.22
25526;BME280;13424;48.424;11.258;2023-02-16T15:52:12;96464.22;;;14.06;44.93
25526;BME280;13424;48.424;11.258;2023-02-16T15:54:40;96462.94;;;14.25;45.60